sensor_id;sensor_type;location;lat;lon;timestamp;temperature;humidity
8824;DHT22;4448;50.904;4.694;2023-09-18T00:00:49;21.90;99.90
8824;DHT22;4448;50.904;4.694;2023-09-18T00:03:19;21.90;99.90
8824;DHT22;4448;50.904;4.694;2023-09-18T00:05:48;21.90;99.90
8824;DHT22;4448;50.904;4.694;2023-09-18T00:08:15;21.90;99.90
8824;DHT22;4448;50.904;4.694;2023-09-18T00:10:41;21.90;99.90
8824;DHT22;4448;50.904;4.694;2023-09-18T00:13:07;21.90;99.90
8824;DHT22;4448;50.904;4.694;2023-09-18T00:15:33;21.90;99.90
8824;DHT22;4448;50.904;4.694;2023-09-18T00:17:58;21.90;99.90
8824;DHT22;4448;50.904;4.694;2023-09-18T00:20:24;21.90;99.90
8824;DHT22;4448;50.904;4.694;2023-09-18T00:22:54;21.90;99.90
8824;DHT22;4448;50.904;4.694;2023-09-18T00:25:21;21.90;99.90
8824;DHT22;4448;50.904;4.694;2023-09-18T00:27:46;21.90;99.90
8824;DHT22;4448;50.904;4.694;2023-09-18T00:30:12;21.90;99.90
8824;DHT22;4448;50.904;4.694;2023-09-18T00:32:38;21.90;99.90
8824;DHT22;4448;50.904;4.694;2023-09-18T00:35:03;21.90;99.90
8824;DHT22;4448;50.904;4.694;2023-09-18T00:37:29;21.90;99.90
8824;DHT22;4448;50.904;4.694;2023-09-18T00:39:55;21.90;99.90
8824;DHT22;4448;50.904;4.694;2023-09-18T00:42:21;21.90;99.90
8824;DHT22;4448;50.904;4.694;2023-09-18T00:44:48;21.90;99.90
8824;DHT22;4448;50.904;4.694;2023-09-18T00:47:14;21.90;99.90
8824;DHT22;4448;50.904;4.694;2023-09-18T00:49:41;21.90;99.90
8824;DHT22;4448;50.904;4.694;2023-09-18T00:52:09;21.90;99.90
8824;DHT22;4448;50.904;4.694;2023-09-18T00:54:36;21.90;99.90
8824;DHT22;4448;50.904;4.694;2023-09-18T00:57:03;21.90;99.90
8824;DHT22;4448;50.904;4.694;2023-09-18T00:59:29;21.90;99.90
8824;DHT22;4448;50.904;4.694;2023-09-18T01:01:55;21.90;99.90
8824;DHT22;4448;50.904;4.694;2023-09-18T01:04:21;21.90;99.90
8824;DHT22;4448;50.904;4.694;2023-09-18T01:06:47;21.90;99.90
8824;DHT22;4448;50.904;4.694;2023-09-18T01:09:16;21.90;99.90
8824;DHT22;4448;50.904;4.694;2023-09-18T01:12:03;21.90;99.90
8824;DHT22;4448;50.904;4.694;2023-09-18T01:15:02;21.90;99.90
8824;DHT22;4448;50.904;4.694;2023-09-18T01:17:27;21.90;99.90
8824;DHT22;4448;50.904;4.694;2023-09-18T01:19:53;21.90;99.90
8824;DHT22;4448;50.904;4.694;2023-09-18T01:22:19;21.90;99.90
8824;DHT22;4448;50.904;4.694;2023-09-18T01:24:47;21.90;99.90
8824;DHT22;4448;50.904;4.694;2023-09-18T01:27:14;21.80;99.90
8824;DHT22;4448;50.904;4.694;2023-09-18T01:29:44;21.80;99.90
8824;DHT22;4448;50.904;4.694;2023-09-18T01:32:10;21.80;99.90
8824;DHT22;4448;50.904;4.694;2023-09-18T01:34:47;21.80;99.90
8824;DHT22;4448;50.904;4.694;2023-09-18T01:37:16;21.80;99.90
8824;DHT22;4448;50.904;4.694;2023-09-18T01:39:42;21.80;99.90
8824;DHT22;4448;50.904;4.694;2023-09-18T01:42:10;21.70;99.90
8824;DHT22;4448;50.904;4.694;2023-09-18T01:44:37;21.70;99.90
8824;DHT22;4448;50.904;4.694;2023-09-18T01:47:12;21.70;99.90
8824;DHT22;4448;50.904;4.694;2023-09-18T01:49:39;21.80;99.90
8824;DHT22;4448;50.904;4.694;2023-09-18T01:52:07;21.80;99.90
8824;DHT22;4448;50.904;4.694;2023-09-18T01:54:34;21.80;99.90
8824;DHT22;4448;50.904;4.694;2023-09-18T01:57:01;21.70;99.90
8824;DHT22;4448;50.904;4.694;2023-09-18T01:59:27;21.70;99.90
8824;DHT22;4448;50.904;4.694;2023-09-18T02:01:53;21.70;99.90
8824;DHT22;4448;50.904;4.694;2023-09-18T02:04:19;21.70;99.90
8824;DHT22;4448;50.904;4.694;2023-09-18T02:06:48;21.70;99.90
8824;DHT22;4448;50.904;4.694;2023-09-18T02:09:14;21.70;99.90
8824;DHT22;4448;50.904;4.694;2023-09-18T02:11:42;21.70;99.90
8824;DHT22;4448;50.904;4.694;2023-09-18T02:14:09;21.70;99.90
8824;DHT22;4448;50.904;4.694;2023-09-18T02:16:40;21.70;99.90
8824;DHT22;4448;50.904;4.694;2023-09-18T02:19:15;21.70;99.90
8824;DHT22;4448;50.904;4.694;2023-09-18T02:21:42;21.60;99.90
8824;DHT22;4448;50.904;4.694;2023-09-18T02:24:08;21.60;99.90
8824;DHT22;4448;50.904;4.694;2023-09-18T02:26:34;21.60;99.90
8824;DHT22;4448;50.904;4.694;2023-09-18T02:29:03;21.60;99.90
8824;DHT22;4448;50.904;4.694;2023-09-18T02:31:29;21.60;99.90
8824;DHT22;4448;50.904;4.694;2023-09-18T02:33:56;21.60;99.90
8824;DHT22;4448;50.904;4.694;2023-09-18T02:36:21;21.60;99.90
8824;DHT22;4448;50.904;4.694;2023-09-18T02:38:47;21.60;99.90
8824;DHT22;4448;50.904;4.694;2023-09-18T02:41:13;21.60;99.90
8824;DHT22;4448;50.904;4.694;2023-09-18T02:43:38;21.60;99.90
8824;DHT22;4448;50.904;4.694;2023-09-18T02:46:05;21.60;99.90
8824;DHT22;4448;50.904;4.694;2023-09-18T02:48:31;21.60;99.90
8824;DHT22;4448;50.904;4.694;2023-09-18T02:50:58;21.60;99.90
8824;DHT22;4448;50.904;4.694;2023-09-18T02:53:24;21.60;99.90
8824;DHT22;4448;50.904;4.694;2023-09-18T02:55:55;21.60;99.90
8824;DHT22;4448;50.904;4.694;2023-09-18T02:58:21;21.60;99.90
8824;DHT22;4448;50.904;4.694;2023-09-18T03:00:50;21.60;99.90
8824;DHT22;4448;50.904;4.694;2023-09-18T03:03:17;21.60;99.90
8824;DHT22;4448;50.904;4.694;2023-09-18T03:05:43;21.50;99.90
8824;DHT22;4448;50.904;4.694;2023-09-18T03:08:10;21.60;99.90
8824;DHT22;4448;50.904;4.694;2023-09-18T03:10:38;21.50;99.90
8824;DHT22;4448;50.904;4.694;2023-09-18T03:13:05;21.50;99.90
8824;DHT22;4448;50.904;4.694;2023-09-18T03:15:31;21.50;99.90
8824;DHT22;4448;50.904;4.694;2023-09-18T03:17:58;21.50;99.90
8824;DHT22;4448;50.904;4.694;2023-09-18T03:20:24;21.50;99.90
8824;DHT22;4448;50.904;4.694;2023-09-18T03:23:00;21.50;99.90
8824;DHT22;4448;50.904;4.694;2023-09-18T03:25:26;21.50;99.90
8824;DHT22;4448;50.904;4.694;2023-09-18T03:27:54;21.50;99.90
8824;DHT22;4448;50.904;4.694;2023-09-18T03:30:21;21.50;99.90
8824;DHT22;4448;50.904;4.694;2023-09-18T03:32:49;21.50;99.90
8824;DHT22;4448;50.904;4.694;2023-09-18T03:35:15;21.50;99.90
8824;DHT22;4448;50.904;4.694;2023-09-18T03:37:53;21.50;99.90
8824;DHT22;4448;50.904;4.694;2023-09-18T03:40:22;21.40;99.90
8824;DHT22;4448;50.904;4.694;2023-09-18T03:42:49;21.40;99.90
8824;DHT22;4448;50.904;4.694;2023-09-18T03:45:14;21.40;99.90
8824;DHT22;4448;50.904;4.694;2023-09-18T03:47:41;21.40;99.90
8824;DHT22;4448;50.904;4.694;2023-09-18T03:50:11;21.40;99.90
8824;DHT22;4448;50.904;4.694;2023-09-18T03:52:38;21.40;99.90
8824;DHT22;4448;50.904;4.694;2023-09-18T03:55:05;21.40;99.90
8824;DHT22;4448;50.904;4.694;2023-09-18T03:57:30;21.40;99.90
8824;DHT22;4448;50.904;4.694;2023-09-18T03:59:56;21.40;99.90
8824;DHT22;4448;50.904;4.694;2023-09-18T04:02:25;21.30;99.90
8824;DHT22;4448;50.904;4.694;2023-09-18T04:04:51;21.30;99.90
8824;DHT22;4448;50.904;4.694;2023-09-18T04:07:17;21.30;99.90
8824;DHT22;4448;50.904;4.694;2023-09-18T04:09:43;21.30;99.90
8824;DHT22;4448;50.904;4.694;2023-09-18T04:12:09;21.30;99.90
8824;DHT22;4448;50.904;4.694;2023-09-18T04:14:35;21.30;99.90
8824;DHT22;4448;50.904;4.694;2023-09-18T04:17:01;21.30;99.90
8824;DHT22;4448;50.904;4.694;2023-09-18T04:19:28;21.30;99.90
8824;DHT22;4448;50.904;4.694;2023-09-18T04:21:53;21.30;99.90
8824;DHT22;4448;50.904;4.694;2023-09-18T04:24:19;21.20;99.90
8824;DHT22;4448;50.904;4.694;2023-09-18T04:26:45;21.20;99.90
8824;DHT22;4448;50.904;4.694;2023-09-18T04:29:11;21.20;99.90
8824;DHT22;4448;50.904;4.694;2023-09-18T04:31:36;21.20;99.90
8824;DHT22;4448;50.904;4.694;2023-09-18T04:34:03;21.20;99.90
8824;DHT22;4448;50.904;4.694;2023-09-18T04:36:29;21.20;99.90
8824;DHT22;4448;50.904;4.694;2023-09-18T04:38:55;21.20;99.90
8824;DHT22;4448;50.904;4.694;2023-09-18T04:41:20;21.20;99.90
8824;DHT22;4448;50.904;4.694;2023-09-18T04:43:46;21.20;99.90
8824;DHT22;4448;50.904;4.694;2023-09-18T04:46:12;21.10;99.90
8824;DHT22;4448;50.904;4.694;2023-09-18T04:48:38;21.10;99.90
8824;DHT22;4448;50.904;4.694;2023-09-18T04:51:04;21.10;99.90
8824;DHT22;4448;50.904;4.694;2023-09-18T04:53:30;21.10;99.90
8824;DHT22;4448;50.904;4.694;2023-09-18T04:55:56;21.10;99.90
8824;DHT22;4448;50.904;4.694;2023-09-18T04:58:22;21.10;99.90
8824;DHT22;4448;50.904;4.694;2023-09-18T05:00:58;21.00;99.90
8824;DHT22;4448;50.904;4.694;2023-09-18T05:03:25;21.00;99.90
8824;DHT22;4448;50.904;4.694;2023-09-18T05:05:52;21.00;99.90
8824;DHT22;4448;50.904;4.694;2023-09-18T05:08:18;21.00;99.90
8824;DHT22;4448;50.904;4.694;2023-09-18T05:10:45;20.90;99.90
8824;DHT22;4448;50.904;4.694;2023-09-18T05:13:12;20.90;99.90
8824;DHT22;4448;50.904;4.694;2023-09-18T05:15:38;20.90;99.90
8824;DHT22;4448;50.904;4.694;2023-09-18T05:18:04;20.90;99.90
8824;DHT22;4448;50.904;4.694;2023-09-18T05:20:30;20.90;99.90
8824;DHT22;4448;50.904;4.694;2023-09-18T05:22:57;20.90;99.90
8824;DHT22;4448;50.904;4.694;2023-09-18T05:25:25;20.90;99.90
8824;DHT22;4448;50.904;4.694;2023-09-18T05:27:52;20.90;99.90
8824;DHT22;4448;50.904;4.694;2023-09-18T05:30:29;20.90;99.90
8824;DHT22;4448;50.904;4.694;2023-09-18T05:32:57;20.90;99.90
8824;DHT22;4448;50.904;4.694;2023-09-18T05:35:23;20.90;99.90
8824;DHT22;4448;50.904;4.694;2023-09-18T05:37:49;20.90;99.90
8824;DHT22;4448;50.904;4.694;2023-09-18T05:40:16;20.90;99.90
8824;DHT22;4448;50.904;4.694;2023-09-18T05:42:43;20.90;99.90
8824;DHT22;4448;50.904;4.694;2023-09-18T05:45:13;20.90;99.90
8824;DHT22;4448;50.904;4.694;2023-09-18T05:47:39;20.80;99.90
8824;DHT22;4448;50.904;4.694;2023-09-18T05:50:06;20.90;99.90
8824;DHT22;4448;50.904;4.694;2023-09-18T05:52:33;20.80;99.90
8824;DHT22;4448;50.904;4.694;2023-09-18T05:54:59;20.70;99.90
8824;DHT22;4448;50.904;4.694;2023-09-18T05:57:25;20.70;99.90
8824;DHT22;4448;50.904;4.694;2023-09-18T05:59:55;20.70;99.90
8824;DHT22;4448;50.904;4.694;2023-09-18T06:02:21;20.70;99.90
8824;DHT22;4448;50.904;4.694;2023-09-18T06:04:48;20.70;99.90
8824;DHT22;4448;50.904;4.694;2023-09-18T06:07:14;20.70;99.90
8824;DHT22;4448;50.904;4.694;2023-09-18T06:09:40;20.70;99.90
8824;DHT22;4448;50.904;4.694;2023-09-18T06:12:07;20.70;99.90
8824;DHT22;4448;50.904;4.694;2023-09-18T06:14:32;20.70;99.90
8824;DHT22;4448;50.904;4.694;2023-09-18T06:17:03;20.70;99.90
8824;DHT22;4448;50.904;4.694;2023-09-18T06:19:29;20.70;99.90
8824;DHT22;4448;50.904;4.694;2023-09-18T06:21:55;20.70;99.90
8824;DHT22;4448;50.904;4.694;2023-09-18T06:24:21;20.70;99.90
8824;DHT22;4448;50.904;4.694;2023-09-18T06:26:46;20.70;99.90
8824;DHT22;4448;50.904;4.694;2023-09-18T06:29:12;20.70;99.90
8824;DHT22;4448;50.904;4.694;2023-09-18T06:31:39;20.70;99.90
8824;DHT22;4448;50.904;4.694;2023-09-18T06:34:04;20.70;99.90
8824;DHT22;4448;50.904;4.694;2023-09-18T06:36:30;20.70;99.90
8824;DHT22;4448;50.904;4.694;2023-09-18T06:38:56;20.70;99.90
8824;DHT22;4448;50.904;4.694;2023-09-18T06:41:21;20.70;99.90
8824;DHT22;4448;50.904;4.694;2023-09-18T06:43:50;20.70;99.90
8824;DHT22;4448;50.904;4.694;2023-09-18T06:46:16;20.70;99.90
8824;DHT22;4448;50.904;4.694;2023-09-18T06:48:42;20.80;99.90
8824;DHT22;4448;50.904;4.694;2023-09-18T06:51:11;20.80;99.90
8824;DHT22;4448;50.904;4.694;2023-09-18T06:53:36;20.80;99.90
8824;DHT22;4448;50.904;4.694;2023-09-18T06:56:02;20.80;99.90
8824;DHT22;4448;50.904;4.694;2023-09-18T06:58:28;20.80;99.90
8824;DHT22;4448;50.904;4.694;2023-09-18T07:00:53;20.80;99.90
8824;DHT22;4448;50.904;4.694;2023-09-18T07:03:19;20.80;99.90
8824;DHT22;4448;50.904;4.694;2023-09-18T07:05:45;20.80;99.90
8824;DHT22;4448;50.904;4.694;2023-09-18T07:08:11;20.80;99.90
8824;DHT22;4448;50.904;4.694;2023-09-18T07:10:38;20.80;99.90
8824;DHT22;4448;50.904;4.694;2023-09-18T07:13:04;20.90;99.90
8824;DHT22;4448;50.904;4.694;2023-09-18T07:15:30;20.90;99.90
8824;DHT22;4448;50.904;4.694;2023-09-18T07:17:55;20.90;99.90
8824;DHT22;4448;50.904;4.694;2023-09-18T07:20:21;20.80;99.90
8824;DHT22;4448;50.904;4.694;2023-09-18T07:22:49;20.80;99.90
8824;DHT22;4448;50.904;4.694;2023-09-18T07:25:16;20.80;99.90
8824;DHT22;4448;50.904;4.694;2023-09-18T07:27:42;20.80;99.90
8824;DHT22;4448;50.904;4.694;2023-09-18T07:30:11;20.80;99.90
8824;DHT22;4448;50.904;4.694;2023-09-18T07:32:39;20.80;99.90
8824;DHT22;4448;50.904;4.694;2023-09-18T07:35:07;20.80;99.90
8824;DHT22;4448;50.904;4.694;2023-09-18T07:37:33;20.80;99.90
8824;DHT22;4448;50.904;4.694;2023-09-18T07:40:00;20.80;99.90
8824;DHT22;4448;50.904;4.694;2023-09-18T07:42:26;20.80;99.90
8824;DHT22;4448;50.904;4.694;2023-09-18T07:44:53;20.80;99.90
8824;DHT22;4448;50.904;4.694;2023-09-18T07:47:18;20.80;99.90
8824;DHT22;4448;50.904;4.694;2023-09-18T07:49:44;20.80;99.90
8824;DHT22;4448;50.904;4.694;2023-09-18T07:52:10;20.90;99.90
8824;DHT22;4448;50.904;4.694;2023-09-18T07:54:36;20.90;99.90
8824;DHT22;4448;50.904;4.694;2023-09-18T07:57:01;21.00;99.90
8824;DHT22;4448;50.904;4.694;2023-09-18T07:59:27;21.00;99.90
8824;DHT22;4448;50.904;4.694;2023-09-18T08:01:53;21.10;99.90
8824;DHT22;4448;50.904;4.694;2023-09-18T08:04:20;21.20;99.90
8824;DHT22;4448;50.904;4.694;2023-09-18T08:06:46;21.20;99.90
8824;DHT22;4448;50.904;4.694;2023-09-18T08:09:13;21.20;99.90
8824;DHT22;4448;50.904;4.694;2023-09-18T08:11:41;21.30;99.90
8824;DHT22;4448;50.904;4.694;2023-09-18T08:14:09;21.30;99.90
8824;DHT22;4448;50.904;4.694;2023-09-18T08:16:37;21.50;99.90
8824;DHT22;4448;50.904;4.694;2023-09-18T08:19:03;21.60;99.90
8824;DHT22;4448;50.904;4.694;2023-09-18T08:21:29;21.70;99.90
8824;DHT22;4448;50.904;4.694;2023-09-18T08:23:55;21.80;99.90
8824;DHT22;4448;50.904;4.694;2023-09-18T08:26:21;21.90;99.90
8824;DHT22;4448;50.904;4.694;2023-09-18T08:28:47;21.90;99.90
8824;DHT22;4448;50.904;4.694;2023-09-18T08:31:13;22.10;99.90
8824;DHT22;4448;50.904;4.694;2023-09-18T08:33:44;22.20;99.90
8824;DHT22;4448;50.904;4.694;2023-09-18T08:36:10;22.30;99.90
8824;DHT22;4448;50.904;4.694;2023-09-18T08:38:36;22.40;99.90
8824;DHT22;4448;50.904;4.694;2023-09-18T08:41:01;22.60;99.90
8824;DHT22;4448;50.904;4.694;2023-09-18T08:43:29;22.60;99.90
8824;DHT22;4448;50.904;4.694;2023-09-18T08:45:56;22.70;99.90
8824;DHT22;4448;50.904;4.694;2023-09-18T08:48:28;22.80;99.90
8824;DHT22;4448;50.904;4.694;2023-09-18T08:51:04;22.80;99.90
8824;DHT22;4448;50.904;4.694;2023-09-18T08:53:31;22.90;99.90
8824;DHT22;4448;50.904;4.694;2023-09-18T08:55:58;23.00;99.90
8824;DHT22;4448;50.904;4.694;2023-09-18T08:58:28;23.00;99.90
8824;DHT22;4448;50.904;4.694;2023-09-18T09:00:55;23.00;99.90
8824;DHT22;4448;50.904;4.694;2023-09-18T09:03:21;22.90;99.90
8824;DHT22;4448;50.904;4.694;2023-09-18T09:05:48;22.80;99.90
8824;DHT22;4448;50.904;4.694;2023-09-18T09:08:13;22.80;99.90
8824;DHT22;4448;50.904;4.694;2023-09-18T09:10:40;22.70;99.90
8824;DHT22;4448;50.904;4.694;2023-09-18T09:13:06;22.60;99.90
8824;DHT22;4448;50.904;4.694;2023-09-18T09:15:42;22.60;99.90
8824;DHT22;4448;50.904;4.694;2023-09-18T09:18:11;22.50;99.90
8824;DHT22;4448;50.904;4.694;2023-09-18T09:20:37;22.50;99.90
8824;DHT22;4448;50.904;4.694;2023-09-18T09:23:05;22.40;99.90
8824;DHT22;4448;50.904;4.694;2023-09-18T09:25:32;22.40;99.90
8824;DHT22;4448;50.904;4.694;2023-09-18T09:28:04;22.50;99.90
8824;DHT22;4448;50.904;4.694;2023-09-18T09:30:31;22.40;99.90
8824;DHT22;4448;50.904;4.694;2023-09-18T09:32:58;22.50;99.90
8824;DHT22;4448;50.904;4.694;2023-09-18T09:35:28;22.40;99.90
8824;DHT22;4448;50.904;4.694;2023-09-18T09:37:57;22.40;99.90
8824;DHT22;4448;50.904;4.694;2023-09-18T09:40:25;22.50;99.90
8824;DHT22;4448;50.904;4.694;2023-09-18T09:42:52;22.40;99.90
8824;DHT22;4448;50.904;4.694;2023-09-18T09:45:19;22.50;99.90
8824;DHT22;4448;50.904;4.694;2023-09-18T09:47:45;22.50;99.90
8824;DHT22;4448;50.904;4.694;2023-09-18T09:50:13;22.40;99.90
8824;DHT22;4448;50.904;4.694;2023-09-18T09:52:43;22.50;99.90
8824;DHT22;4448;50.904;4.694;2023-09-18T09:55:30;22.50;99.90
8824;DHT22;4448;50.904;4.694;2023-09-18T09:57:57;22.50;99.90
8824;DHT22;4448;50.904;4.694;2023-09-18T10:00:39;22.60;99.90
8824;DHT22;4448;50.904;4.694;2023-09-18T10:03:10;22.60;99.90
8824;DHT22;4448;50.904;4.694;2023-09-18T10:05:38;22.70;99.90
8824;DHT22;4448;50.904;4.694;2023-09-18T10:08:09;22.80;99.90
8824;DHT22;4448;50.904;4.694;2023-09-18T10:10:43;22.90;99.90
8824;DHT22;4448;50.904;4.694;2023-09-18T10:13:23;23.00;99.90
8824;DHT22;4448;50.904;4.694;2023-09-18T10:15:53;22.90;99.90
8824;DHT22;4448;50.904;4.694;2023-09-18T10:21:09;22.90;99.90
8824;DHT22;4448;50.904;4.694;2023-09-18T10:24:17;22.90;99.90
8824;DHT22;4448;50.904;4.694;2023-09-18T10:26:43;22.90;99.90
8824;DHT22;4448;50.904;4.694;2023-09-18T10:29:13;22.90;99.90
8824;DHT22;4448;50.904;4.694;2023-09-18T10:31:40;22.90;99.90
8824;DHT22;4448;50.904;4.694;2023-09-18T10:34:07;22.90;99.90
8824;DHT22;4448;50.904;4.694;2023-09-18T10:36:34;23.00;99.90
8824;DHT22;4448;50.904;4.694;2023-09-18T10:39:00;23.20;99.90
8824;DHT22;4448;50.904;4.694;2023-09-18T10:41:26;23.30;99.90
8824;DHT22;4448;50.904;4.694;2023-09-18T10:43:53;23.40;99.90
8824;DHT22;4448;50.904;4.694;2023-09-18T10:46:20;23.50;99.90
8824;DHT22;4448;50.904;4.694;2023-09-18T10:48:46;23.50;99.90
8824;DHT22;4448;50.904;4.694;2023-09-18T10:51:22;23.50;99.90
8824;DHT22;4448;50.904;4.694;2023-09-18T10:53:48;23.50;99.90
8824;DHT22;4448;50.904;4.694;2023-09-18T10:56:15;23.40;99.90
8824;DHT22;4448;50.904;4.694;2023-09-18T10:58:42;23.40;99.90
8824;DHT22;4448;50.904;4.694;2023-09-18T11:01:11;23.30;99.90
8824;DHT22;4448;50.904;4.694;2023-09-18T11:03:38;23.40;99.90
8824;DHT22;4448;50.904;4.694;2023-09-18T11:06:06;23.60;99.90
8824;DHT22;4448;50.904;4.694;2023-09-18T11:08:44;23.90;99.90
8824;DHT22;4448;50.904;4.694;2023-09-18T11:11:12;24.10;99.90
8824;DHT22;4448;50.904;4.694;2023-09-18T11:13:52;24.50;99.90
8824;DHT22;4448;50.904;4.694;2023-09-18T11:19:17;25.00;99.90
8824;DHT22;4448;50.904;4.694;2023-09-18T11:21:44;25.10;99.90
8824;DHT22;4448;50.904;4.694;2023-09-18T11:24:20;25.20;99.90
8824;DHT22;4448;50.904;4.694;2023-09-18T11:26:48;25.20;99.90
8824;DHT22;4448;50.904;4.694;2023-09-18T11:29:16;25.30;99.90
8824;DHT22;4448;50.904;4.694;2023-09-18T11:31:49;25.30;99.90
8824;DHT22;4448;50.904;4.694;2023-09-18T11:34:28;25.40;99.90
8824;DHT22;4448;50.904;4.694;2023-09-18T11:36:57;25.40;99.90
8824;DHT22;4448;50.904;4.694;2023-09-18T11:39:52;25.60;99.90
8824;DHT22;4448;50.904;4.694;2023-09-18T11:42:19;25.70;99.90
8824;DHT22;4448;50.904;4.694;2023-09-18T11:44:49;25.80;99.90
8824;DHT22;4448;50.904;4.694;2023-09-18T11:47:19;25.90;99.90
8824;DHT22;4448;50.904;4.694;2023-09-18T11:49:50;26.10;99.90
8824;DHT22;4448;50.904;4.694;2023-09-18T11:52:21;26.20;99.90
8824;DHT22;4448;50.904;4.694;2023-09-18T11:54:47;26.20;99.90
8824;DHT22;4448;50.904;4.694;2023-09-18T11:57:14;26.20;99.90
8824;DHT22;4448;50.904;4.694;2023-09-18T11:59:41;26.20;99.90
8824;DHT22;4448;50.904;4.694;2023-09-18T12:02:09;26.20;99.90
8824;DHT22;4448;50.904;4.694;2023-09-18T12:04:35;26.30;99.90
8824;DHT22;4448;50.904;4.694;2023-09-18T12:07:03;26.40;99.90
8824;DHT22;4448;50.904;4.694;2023-09-18T12:09:33;26.60;99.90
8824;DHT22;4448;50.904;4.694;2023-09-18T12:12:00;26.60;99.90
8824;DHT22;4448;50.904;4.694;2023-09-18T12:14:33;26.70;99.90
8824;DHT22;4448;50.904;4.694;2023-09-18T12:17:02;26.80;99.90
8824;DHT22;4448;50.904;4.694;2023-09-18T12:19:30;27.00;99.90
8824;DHT22;4448;50.904;4.694;2023-09-18T12:21:56;27.00;99.90
8824;DHT22;4448;50.904;4.694;2023-09-18T12:24:25;27.10;99.90
8824;DHT22;4448;50.904;4.694;2023-09-18T12:26:52;27.20;99.90
8824;DHT22;4448;50.904;4.694;2023-09-18T12:29:19;27.20;99.90
8824;DHT22;4448;50.904;4.694;2023-09-18T12:31:45;27.20;99.90
8824;DHT22;4448;50.904;4.694;2023-09-18T12:34:18;27.30;99.90
8824;DHT22;4448;50.904;4.694;2023-09-18T12:36:44;27.20;99.90
8824;DHT22;4448;50.904;4.694;2023-09-18T12:39:13;27.30;99.90
8824;DHT22;4448;50.904;4.694;2023-09-18T12:41:45;27.30;99.90
8824;DHT22;4448;50.904;4.694;2023-09-18T12:44:11;27.20;99.90
8824;DHT22;4448;50.904;4.694;2023-09-18T12:46:38;27.20;99.90
8824;DHT22;4448;50.904;4.694;2023-09-18T12:49:19;27.20;99.90
8824;DHT22;4448;50.904;4.694;2023-09-18T12:52:06;27.20;99.90
8824;DHT22;4448;50.904;4.694;2023-09-18T12:54:42;27.20;99.90
8824;DHT22;4448;50.904;4.694;2023-09-18T12:57:15;27.10;99.90
8824;DHT22;4448;50.904;4.694;2023-09-18T12:59:41;27.00;99.90
8824;DHT22;4448;50.904;4.694;2023-09-18T13:02:07;27.00;99.90
8824;DHT22;4448;50.904;4.694;2023-09-18T13:04:37;26.90;99.90
8824;DHT22;4448;50.904;4.694;2023-09-18T13:07:13;26.90;99.90
8824;DHT22;4448;50.904;4.694;2023-09-18T13:09:40;26.80;99.90
8824;DHT22;4448;50.904;4.694;2023-09-18T13:12:06;26.80;99.90
8824;DHT22;4448;50.904;4.694;2023-09-18T13:15:01;26.70;99.90
8824;DHT22;4448;50.904;4.694;2023-09-18T13:17:40;26.70;99.90
8824;DHT22;4448;50.904;4.694;2023-09-18T13:20:21;26.70;99.90
8824;DHT22;4448;50.904;4.694;2023-09-18T13:22:51;26.70;99.90
8824;DHT22;4448;50.904;4.694;2023-09-18T13:27:48;26.70;99.90
8824;DHT22;4448;50.904;4.694;2023-09-18T13:30:14;26.70;99.90
8824;DHT22;4448;50.904;4.694;2023-09-18T13:32:43;26.70;99.90
8824;DHT22;4448;50.904;4.694;2023-09-18T13:35:14;26.50;99.90
8824;DHT22;4448;50.904;4.694;2023-09-18T13:37:40;26.50;99.90
8824;DHT22;4448;50.904;4.694;2023-09-18T13:40:06;26.40;99.90
8824;DHT22;4448;50.904;4.694;2023-09-18T13:42:35;26.30;99.90
8824;DHT22;4448;50.904;4.694;2023-09-18T13:45:01;26.20;99.90
8824;DHT22;4448;50.904;4.694;2023-09-18T13:47:27;26.20;99.90
8824;DHT22;4448;50.904;4.694;2023-09-18T13:49:53;26.10;99.90
8824;DHT22;4448;50.904;4.694;2023-09-18T13:52:23;26.10;99.90
8824;DHT22;4448;50.904;4.694;2023-09-18T13:54:50;26.00;99.90
8824;DHT22;4448;50.904;4.694;2023-09-18T13:57:18;25.90;99.90
8824;DHT22;4448;50.904;4.694;2023-09-18T13:59:45;25.70;99.90
8824;DHT22;4448;50.904;4.694;2023-09-18T14:02:11;25.50;99.90
8824;DHT22;4448;50.904;4.694;2023-09-18T14:04:37;25.50;99.90
8824;DHT22;4448;50.904;4.694;2023-09-18T14:07:03;25.50;99.90
8824;DHT22;4448;50.904;4.694;2023-09-18T14:09:29;25.50;99.90
8824;DHT22;4448;50.904;4.694;2023-09-18T14:11:55;25.50;99.90
8824;DHT22;4448;50.904;4.694;2023-09-18T14:14:22;25.60;99.90
8824;DHT22;4448;50.904;4.694;2023-09-18T14:16:48;25.60;99.90
8824;DHT22;4448;50.904;4.694;2023-09-18T14:19:16;25.70;99.90
8824;DHT22;4448;50.904;4.694;2023-09-18T14:21:42;25.80;99.90
8824;DHT22;4448;50.904;4.694;2023-09-18T14:24:08;25.70;99.90
8824;DHT22;4448;50.904;4.694;2023-09-18T14:26:35;25.70;99.90
8824;DHT22;4448;50.904;4.694;2023-09-18T14:29:10;25.70;99.90
8824;DHT22;4448;50.904;4.694;2023-09-18T14:31:37;25.60;99.90
8824;DHT22;4448;50.904;4.694;2023-09-18T14:34:03;25.60;99.90
8824;DHT22;4448;50.904;4.694;2023-09-18T14:36:34;25.50;99.90
8824;DHT22;4448;50.904;4.694;2023-09-18T14:39:00;25.50;99.90
8824;DHT22;4448;50.904;4.694;2023-09-18T14:41:29;25.30;99.90
8824;DHT22;4448;50.904;4.694;2023-09-18T14:43:57;25.20;99.90
8824;DHT22;4448;50.904;4.694;2023-09-18T14:46:24;25.10;99.90
8824;DHT22;4448;50.904;4.694;2023-09-18T14:48:50;25.10;99.90
8824;DHT22;4448;50.904;4.694;2023-09-18T14:51:16;25.00;99.90
8824;DHT22;4448;50.904;4.694;2023-09-18T14:53:43;25.00;99.90
8824;DHT22;4448;50.904;4.694;2023-09-18T14:56:09;24.90;99.90
8824;DHT22;4448;50.904;4.694;2023-09-18T14:58:34;24.90;99.90
8824;DHT22;4448;50.904;4.694;2023-09-18T15:01:00;24.80;99.90
8824;DHT22;4448;50.904;4.694;2023-09-18T15:03:26;24.80;99.90
8824;DHT22;4448;50.904;4.694;2023-09-18T15:05:54;24.70;99.90
8824;DHT22;4448;50.904;4.694;2023-09-18T15:08:21;24.70;99.90
8824;DHT22;4448;50.904;4.694;2023-09-18T15:10:47;24.60;99.90
8824;DHT22;4448;50.904;4.694;2023-09-18T15:13:13;24.50;99.90
8824;DHT22;4448;50.904;4.694;2023-09-18T15:15:40;24.50;99.90
8824;DHT22;4448;50.904;4.694;2023-09-18T15:18:06;24.30;99.90
8824;DHT22;4448;50.904;4.694;2023-09-18T15:20:31;24.20;99.90
8824;DHT22;4448;50.904;4.694;2023-09-18T15:22:58;24.10;99.90
8824;DHT22;4448;50.904;4.694;2023-09-18T15:25:23;24.00;99.90
8824;DHT22;4448;50.904;4.694;2023-09-18T15:27:49;24.00;99.90
8824;DHT22;4448;50.904;4.694;2023-09-18T15:30:15;23.90;99.90
8824;DHT22;4448;50.904;4.694;2023-09-18T15:32:48;23.80;99.90
8824;DHT22;4448;50.904;4.694;2023-09-18T15:35:21;23.70;99.90
8824;DHT22;4448;50.904;4.694;2023-09-18T15:37:47;23.70;99.90
8824;DHT22;4448;50.904;4.694;2023-09-18T15:40:13;23.60;99.90
8824;DHT22;4448;50.904;4.694;2023-09-18T15:42:41;23.50;99.90
8824;DHT22;4448;50.904;4.694;2023-09-18T15:45:08;23.40;99.90
8824;DHT22;4448;50.904;4.694;2023-09-18T15:47:37;23.40;99.90
8824;DHT22;4448;50.904;4.694;2023-09-18T15:50:03;23.40;99.90
8824;DHT22;4448;50.904;4.694;2023-09-18T15:52:30;23.30;99.90
8824;DHT22;4448;50.904;4.694;2023-09-18T15:54:56;23.20;99.90
8824;DHT22;4448;50.904;4.694;2023-09-18T15:57:22;23.20;99.90
8824;DHT22;4448;50.904;4.694;2023-09-18T15:59:47;23.20;99.90
8824;DHT22;4448;50.904;4.694;2023-09-18T16:02:13;23.10;99.90
8824;DHT22;4448;50.904;4.694;2023-09-18T16:04:39;23.10;99.90
8824;DHT22;4448;50.904;4.694;2023-09-18T16:07:05;23.00;99.90
8824;DHT22;4448;50.904;4.694;2023-09-18T16:09:37;23.00;99.90
8824;DHT22;4448;50.904;4.694;2023-09-18T16:12:03;23.00;99.90
8824;DHT22;4448;50.904;4.694;2023-09-18T16:14:29;23.00;99.90